Time;durP1;ratioP1;P1;durP2;ratioP2;P2;SDS_P1;SDS_P2;PMS_P1;PMS_P2;Temp;Humidity;BMP_temperature;BMP_pressure;BME280_temperature;BME280_humidity;BME280_pressure;Samples;Min_cycle;Max_cycle;Signal;HPM_P1;HPM_P2
2022/08/01 00:00:29;;;;;;;1.60;1.50;;;26.10;45.30;;;29.90;29.59;100947.22;5114451;28;20127;-11
2022/08/01 00:02:54;;;;;;;1.73;1.63;;;26.10;45.30;;;29.91;29.77;100948.06;5114323;28;20149;-11
2022/08/01 00:05:20;;;;;;;1.52;1.42;;;26.00;45.20;;;29.96;29.61;100955.69;5113558;28;20043;-11
2022/08/01 00:07:46;;;;;;;1.80;1.70;;;26.10;45.30;;;29.97;29.58;100960.06;5114375;28;20047;-11
2022/08/01 00:10:14;;;;;;;1.70;1.60;;;26.00;45.20;;;29.92;29.76;100955.13;5114153;28;20043;-11
2022/08/01 00:12:41;;;;;;;1.98;1.73;;;26.10;45.30;;;29.90;29.72;100949.06;5114163;28;20055;-11
2022/08/01 00:15:10;;;;;;;2.35;1.58;;;26.10;45.90;;;29.88;29.74;100949.19;5114106;28;20043;-11
2022/08/01 00:17:37;;;;;;;1.50;1.40;;;26.10;45.30;;;29.92;29.67;100956.00;5095760;28;20035;-11
2022/08/01 00:20:06;;;;;;;1.90;1.80;;;26.00;45.30;;;29.87;29.73;100944.84;5113852;28;20126;-11
2022/08/01 00:22:33;;;;;;;1.65;1.55;;;26.10;45.30;;;29.95;29.63;100960.22;5113927;28;20047;-11
2022/08/01 00:24:59;;;;;;;1.60;1.50;;;26.10;45.30;;;29.90;29.72;100946.34;5114006;28;20054;-11
2022/08/01 00:27:25;;;;;;;1.80;1.70;;;26.10;45.30;;;29.92;29.58;100955.13;5113942;28;20043;-11
2022/08/01 00:29:51;;;;;;;1.50;1.40;;;26.10;45.60;;;29.95;29.71;100952.13;5114369;28;20051;-10
2022/08/01 00:32:17;;;;;;;1.33;1.23;;;26.10;45.30;;;29.91;29.58;100948.06;5114101;28;20473;-11
2022/08/01 00:34:42;;;;;;;1.60;1.50;;;26.10;45.30;;;29.95;29.65;100954.84;5113888;28;20066;-11
2022/08/01 00:37:08;;;;;;;2.03;1.65;;;26.00;45.20;;;29.89;29.57;100947.38;5113807;28;20044;-11
2022/08/01 00:39:34;;;;;;;1.60;1.50;;;26.00;45.30;;;29.90;29.75;100947.22;5113608;28;20071;-10
2022/08/01 00:42:07;;;;;;;1.63;1.52;;;26.00;45.30;;;29.88;29.62;100943.81;5113745;28;20052;-11
2022/08/01 00:44:33;;;;;;;1.65;1.55;;;26.10;45.40;;;29.95;29.63;100951.31;5095830;28;20070;-11
2022/08/01 00:46:59;;;;;;;1.50;1.40;;;26.10;45.30;;;29.91;29.61;100953.47;5113627;28;20074;-11
2022/08/01 00:49:25;;;;;;;1.73;1.63;;;26.00;45.30;;;29.91;29.72;100953.47;5094010;28;20564;-11
2022/08/01 00:51:51;;;;;;;1.60;1.50;;;26.00;45.30;;;29.87;29.66;100944.84;5113491;28;20054;-11
2022/08/01 00:54:17;;;;;;;1.58;1.48;;;26.10;45.40;;;29.89;29.71;100948.22;5113522;28;20127;-10
2022/08/01 00:56:43;;;;;;;1.60;1.50;;;26.10;45.40;;;29.89;29.72;100942.81;5113498;28;20427;-11
2022/08/01 00:59:11;;;;;;;1.70;1.60;;;26.10;45.40;;;29.93;29.59;100946.91;5113290;28;20040;-10
2022/08/01 01:01:38;;;;;;;1.55;1.45;;;26.10;45.40;;;29.89;29.75;100939.28;5113496;28;20130;-11
2022/08/01 01:04:04;;;;;;;1.42;1.33;;;26.00;45.30;;;29.91;29.73;100948.91;5113633;28;20509;-10
2022/08/01 01:07:00;;;;;;;2.33;1.67;;;26.00;45.30;;;29.91;29.78;100948.91;5113393;28;20047;-11
2022/08/01 01:09:52;;;;;;;1.50;1.40;;;26.00;45.30;;;29.92;29.77;100950.63;5092331;28;20101;-11
2022/08/01 01:12:31;;;;;;;1.50;1.40;;;26.00;45.30;;;29.91;29.73;100951.59;5113259;28;20071;-11
2022/08/01 01:15:41;;;;;;;1.50;1.40;;;26.00;45.40;;;29.87;29.63;100949.34;5113292;28;20497;-11
2022/08/01 01:18:24;;;;;;;1.67;1.55;;;26.10;45.40;;;29.89;29.72;100945.53;5112678;28;20047;-11
2022/08/01 01:21:17;;;;;;;1.65;1.50;;;26.00;45.40;;;29.91;29.69;100950.75;5094651;28;20059;-11
2022/08/01 01:24:28;;;;;;;1.75;1.65;;;26.00;45.40;;;29.92;29.72;100955.13;5113128;28;20051;-10
2022/08/01 01:27:08;;;;;;;1.77;1.67;;;26.00;45.40;;;29.84;29.68;100947.81;5094978;28;20417;-10
2022/08/01 01:29:46;;;;;;;1.67;1.58;;;26.00;45.40;;;29.87;29.74;100949.34;5113030;28;20097;-10
2022/08/01 01:32:35;;;;;;;1.77;1.67;;;26.00;45.40;;;29.91;29.62;100957.00;5095023;28;20079;-11
2022/08/01 01:35:48;;;;;;;1.65;1.55;;;26.00;45.40;;;29.90;29.86;100949.06;5094787;28;20043;-11
2022/08/01 01:38:18;;;;;;;1.75;1.65;;;26.00;45.40;;;29.93;29.68;100964.94;4994084;28;20502;-11
2022/08/01 01:40:46;;;;;;;2.33;1.40;;;26.00;45.40;;;-147.20;100.00;58430.41;5082572;28;20051;-10
2022/08/01 01:43:14;;;;;;;1.50;1.40;;;26.00;45.40;;;-147.20;100.00;58430.41;5093232;28;20436;-10
2022/08/01 01:45:41;;;;;;;1.52;1.42;;;26.00;45.40;;;-147.20;100.00;58430.41;5112877;28;20055;-11
2022/08/01 01:48:09;;;;;;;1.50;1.40;;;26.00;45.50;;;-147.20;100.00;58430.41;5094269;28;20122;-11
2022/08/01 01:50:37;;;;;;;1.98;1.60;;;26.00;45.40;;;-147.20;100.00;58430.41;5094418;28;20512;-10
2022/08/01 01:53:04;;;;;;;1.50;1.40;;;26.00;45.50;;;-147.20;100.00;58430.41;5094711;28;20047;-11
2022/08/01 01:55:31;;;;;;;1.52;1.42;;;26.00;45.50;;;-147.20;100.00;58430.41;5094391;28;20065;-10
2022/08/01 01:57:58;;;;;;;1.70;1.60;;;26.00;45.50;;;-147.20;100.00;58430.41;5112588;28;20036;-11
2022/08/01 02:00:24;;;;;;;1.73;1.63;;;26.00;45.50;;;-147.20;100.00;58430.41;5112688;28;20485;-11
2022/08/01 02:02:52;;;;;;;1.95;1.65;;;26.00;45.50;;;-147.20;100.00;58430.41;5112594;28;20090;-10
2022/08/01 02:05:20;;;;;;;1.80;1.70;;;26.00;45.50;;;-147.20;100.00;58430.41;5112609;28;20043;-11
2022/08/01 02:07:47;;;;;;;1.48;1.38;;;26.00;45.50;;;-147.20;100.00;58430.41;5112239;28;20043;-11
2022/08/01 02:10:15;;;;;;;1.83;1.60;;;26.00;45.60;;;-147.20;100.00;58430.41;5113169;28;20063;-11
2022/08/01 02:12:45;;;;;;;1.60;1.50;;;26.00;45.60;;;-147.20;100.00;58430.41;5094133;28;20052;-11
2022/08/01 02:15:13;;;;;;;1.30;1.20;;;26.00;45.50;;;-147.20;100.00;58430.41;5094078;28;20492;-10
2022/08/01 02:17:45;;;;;;;1.60;1.50;;;26.00;45.60;;;-147.20;100.00;58430.41;5094509;28;20370;-11
2022/08/01 02:20:12;;;;;;;1.70;1.60;;;26.00;45.60;;;-147.20;100.00;58430.41;5112390;28;20051;-11
2022/08/01 02:23:02;;;;;;;1.60;1.35;;;26.00;45.60;;;-147.20;100.00;58430.41;5112605;28;20052;-11
2022/08/01 02:25:42;;;;;;;1.85;1.75;;;26.00;45.60;;;-147.20;100.00;58430.41;5097699;28;20063;-11
2022/08/01 02:28:14;;;;;;;1.80;1.70;;;26.00;45.60;;;-147.20;100.00;58430.41;5114028;28;20048;-11
2022/08/01 02:30:44;;;;;;;1.90;1.80;;;26.00;45.60;;;-147.20;100.00;58430.41;5097514;28;20088;-11
2022/08/01 02:33:19;;;;;;;1.80;1.70;;;26.00;45.60;;;-147.20;100.00;58430.41;5096732;28;20048;-10
2022/08/01 02:35:52;;;;;;;1.77;1.67;;;26.00;45.60;;;-147.20;100.00;58430.41;5097586;28;20071;-10
2022/08/01 02:38:22;;;;;;;1.60;1.50;;;26.00;45.60;;;-147.20;100.00;58430.41;5115464;28;20389;-10
2022/08/01 02:40:52;;;;;;;1.65;1.50;;;26.00;45.60;;;-147.20;100.00;58430.41;5097505;28;20096;-10
2022/08/01 02:43:21;;;;;;;1.50;1.40;;;26.00;45.60;;;-147.20;100.00;58430.41;5115960;28;20055;-11
2022/08/01 02:45:54;;;;;;;1.55;1.45;;;26.00;45.70;;;-147.20;100.00;58430.41;5095706;28;20055;-11
2022/08/01 02:48:21;;;;;;;1.70;1.55;;;26.00;45.70;;;-147.20;100.00;58430.41;5097583;28;20058;-11
2022/08/01 02:50:54;;;;;;;1.65;1.55;;;26.00;45.70;;;-147.20;100.00;58430.41;5097530;28;20485;-11
2022/08/01 02:53:24;;;;;;;1.60;1.50;;;26.00;45.70;;;-147.20;100.00;58430.41;5115754;28;20064;-11
2022/08/01 02:55:52;;;;;;;1.50;1.40;;;26.00;45.70;;;-147.20;100.00;58430.41;5115557;28;20173;-11
2022/08/01 02:58:21;;;;;;;1.63;1.40;;;26.00;45.70;;;-147.20;100.00;58430.41;5094884;28;20083;-11
2022/08/01 03:00:47;;;;;;;1.60;1.50;;;26.00;45.70;;;-147.20;100.00;58430.41;5097251;28;20055;-11
2022/08/01 03:03:15;;;;;;;1.50;1.40;;;26.00;45.70;;;-147.20;100.00;58430.41;5115556;28;20095;-11
2022/08/01 03:05:43;;;;;;;1.63;1.52;;;26.00;45.70;;;-147.20;100.00;58430.41;5097001;28;20081;-11
2022/08/01 03:08:10;;;;;;;1.67;1.58;;;26.00;45.70;;;-147.20;100.00;58430.41;5095641;28;20048;-11
2022/08/01 03:10:38;;;;;;;1.30;1.23;;;26.00;45.70;;;-147.20;100.00;58430.41;5115312;28;20043;-10
2022/08/01 03:13:06;;;;;;;1.70;1.60;;;26.00;45.70;;;-147.20;100.00;58430.41;5095244;28;20050;-11
2022/08/01 03:15:36;;;;;;;2.35;1.75;;;26.00;45.70;;;-147.20;100.00;58430.41;5096839;28;20044;-10
2022/08/01 03:18:05;;;;;;;1.73;1.63;;;26.00;45.70;;;-147.20;100.00;58430.41;5096150;28;20138;-11
2022/08/01 03:20:33;;;;;;;1.58;1.48;;;25.90;45.60;;;-147.20;100.00;58430.41;5096866;28;20063;-11
2022/08/01 03:23:06;;;;;;;1.45;1.35;;;26.00;45.70;;;-147.20;100.00;58430.41;5096755;28;20055;-11
2022/08/01 03:25:35;;;;;;;1.58;1.48;;;25.90;45.70;;;-147.20;100.00;58430.41;5096792;28;20523;-11
2022/08/01 03:28:03;;;;;;;1.50;1.40;;;25.90;45.70;;;-147.20;100.00;58430.41;5114754;28;20039;-11
2022/08/01 03:30:31;;;;;;;1.42;1.33;;;25.90;45.70;;;-147.20;100.00;58430.41;5115208;28;20040;-11
2022/08/01 03:32:59;;;;;;;1.60;1.50;;;25.90;45.70;;;-147.20;100.00;58430.41;5096552;28;20121;-10
2022/08/01 03:35:35;;;;;;;1.50;1.40;;;25.90;45.70;;;-147.20;100.00;58430.41;5096569;28;20077;-11
2022/08/01 03:38:03;;;;;;;1.60;1.50;;;25.90;45.70;;;-147.20;100.00;58430.41;5096303;28;20123;-10
2022/08/01 03:40:38;;;;;;;1.60;1.50;;;25.90;45.70;;;-147.20;100.00;58430.41;5114283;28;20040;-10
2022/08/01 03:43:15;;;;;;;1.80;1.70;;;25.90;45.70;;;-147.20;100.00;58430.41;5096460;28;20082;-10
2022/08/01 03:45:46;;;;;;;1.65;1.48;;;25.90;45.70;;;-147.20;100.00;58430.41;5114657;28;20081;-10
2022/08/01 03:48:16;;;;;;;1.30;1.20;;;25.90;46.30;;;-147.20;100.00;58430.41;5096626;28;20082;-11
2022/08/01 03:50:47;;;;;;;1.50;1.40;;;25.90;45.70;;;-147.20;100.00;58430.41;5114829;28;20044;-11
2022/08/01 03:53:14;;;;;;;1.58;1.48;;;25.90;45.80;;;-147.20;100.00;58430.41;5096899;28;20085;-10
2022/08/01 03:55:43;;;;;;;1.65;1.55;;;25.90;45.80;;;-147.20;100.00;58430.41;5096308;28;20047;-11
2022/08/01 03:58:10;;;;;;;1.63;1.52;;;25.90;45.80;;;-147.20;100.00;58430.41;5093822;28;20043;-11
2022/08/01 04:00:39;;;;;;;1.58;1.48;;;25.90;45.80;;;-147.20;100.00;58430.41;5096175;28;20050;-11
2022/08/01 04:03:10;;;;;;;1.55;1.45;;;25.90;45.80;;;-147.20;100.00;58430.41;5096118;28;20051;-10
2022/08/01 04:05:36;;;;;;;1.75;1.65;;;25.90;45.80;;;-147.20;100.00;58430.41;5096404;28;20081;-10
2022/08/01 04:08:02;;;;;;;1.60;1.50;;;25.90;45.80;;;-147.20;100.00;58430.41;5113808;28;20051;-11
2022/08/01 04:10:29;;;;;;;2.10;1.58;;;25.90;45.80;;;-147.20;100.00;58430.41;5114480;28;20401;-11
2022/08/01 04:12:55;;;;;;;1.50;1.40;;;25.90;45.80;;;-147.20;100.00;58430.41;5114144;28;20046;-10
2022/08/01 04:15:21;;;;;;;1.48;1.38;;;25.90;45.80;;;-147.20;100.00;58430.41;5114174;28;20047;-10
2022/08/01 04:17:48;;;;;;;1.65;1.55;;;25.90;45.90;;;-147.20;100.00;58430.41;5114193;28;20131;-11
2022/08/01 04:20:15;;;;;;;1.60;1.50;;;25.90;45.90;;;-147.20;100.00;58430.41;5113830;28;20055;-11
2022/08/01 04:22:41;;;;;;;1.50;1.40;;;25.90;45.90;;;-147.20;100.00;58430.41;5114537;28;20048;-11
2022/08/01 04:25:15;;;;;;;1.52;1.42;;;25.90;45.90;;;-147.20;100.00;58430.41;5114091;28;20052;-10
2022/08/01 04:27:47;;;;;;;1.63;1.52;;;25.90;45.90;;;-147.20;100.00;58430.41;5096087;28;20055;-11
2022/08/01 04:30:14;;;;;;;1.45;1.35;;;25.90;45.90;;;-147.20;100.00;58430.41;5095494;28;20146;-11
2022/08/01 04:32:44;;;;;;;1.52;1.42;;;25.90;45.90;;;-147.20;100.00;58430.41;5095525;28;20051;-11
2022/08/01 04:35:16;;;;;;;1.40;1.30;;;25.90;45.90;;;-147.20;100.00;58430.41;5079093;28;20150;-11
2022/08/01 04:37:44;;;;;;;1.50;1.40;;;25.90;45.90;;;-147.20;100.00;58430.41;5113860;28;20519;-11
2022/08/01 04:40:11;;;;;;;2.03;1.52;;;25.90;45.90;;;-147.20;100.00;58430.41;5113833;28;20420;-11
2022/08/01 04:42:37;;;;;;;1.40;1.30;;;25.90;45.90;;;-147.20;100.00;58430.41;5113745;28;20071;-11
2022/08/01 04:45:04;;;;;;;1.50;1.40;;;25.90;45.90;;;-147.20;100.00;58430.41;5095421;28;20062;-10
2022/08/01 04:47:31;;;;;;;1.80;1.70;;;25.90;45.90;;;-147.20;100.00;58430.41;5113523;28;20480;-11
2022/08/01 04:49:57;;;;;;;1.48;1.38;;;25.90;45.90;;;-147.20;100.00;58430.41;5094985;28;20058;-10
2022/08/01 04:52:23;;;;;;;1.48;1.38;;;25.90;45.90;;;-147.20;100.00;58430.41;5095149;28;20043;-11
2022/08/01 04:54:49;;;;;;;1.50;1.40;;;25.90;46.00;;;-147.20;100.00;58430.41;5113811;28;20052;-10
2022/08/01 04:57:15;;;;;;;1.48;1.38;;;25.90;46.00;;;-147.20;100.00;58430.41;5113482;28;20052;-11
2022/08/01 04:59:43;;;;;;;1.42;1.33;;;25.90;46.00;;;-147.20;100.00;58430.41;5113790;28;20122;-11
2022/08/01 05:02:12;;;;;;;1.52;1.42;;;25.90;46.00;;;-147.20;100.00;58430.41;5113318;28;20050;-11
2022/08/01 05:04:39;;;;;;;1.45;1.35;;;25.90;46.00;;;-147.20;100.00;58430.41;5113464;28;20048;-10
2022/08/01 05:07:06;;;;;;;1.88;1.77;;;25.90;46.00;;;-147.20;100.00;58430.41;5112756;28;20048;-10
2022/08/01 05:09:33;;;;;;;1.50;1.40;;;25.90;46.00;;;-147.20;100.00;58430.41;5113325;28;20039;-11
2022/08/01 05:12:03;;;;;;;1.50;1.40;;;25.90;46.00;;;-147.20;100.00;58430.41;5113214;28;20047;-10
2022/08/01 05:14:33;;;;;;;1.60;1.50;;;25.90;46.00;;;-147.20;100.00;58430.41;5113831;28;20483;-11
2022/08/01 05:17:02;;;;;;;1.70;1.60;;;25.90;46.10;;;-147.20;100.00;58430.41;5112740;28;20435;-11
2022/08/01 05:19:31;;;;;;;1.58;1.48;;;25.90;46.60;;;-147.20;100.00;58430.41;5113171;28;20056;-11
2022/08/01 05:22:00;;;;;;;1.65;1.55;;;25.90;46.10;;;-147.20;100.00;58430.41;5113535;28;20138;-11
2022/08/01 05:24:28;;;;;;;1.60;1.50;;;25.90;46.10;;;-147.20;100.00;58430.41;5113197;28;20047;-10
2022/08/01 05:26:56;;;;;;;1.42;1.33;;;25.90;46.10;;;-147.20;100.00;58430.41;5113593;28;20047;-11
2022/08/01 05:29:22;;;;;;;1.42;1.33;;;25.90;46.10;;;-147.20;100.00;58430.41;5112842;28;20126;-11
2022/08/01 05:31:47;;;;;;;1.50;1.40;;;25.90;46.00;;;-147.20;100.00;58430.41;5112912;28;20075;-10
2022/08/01 05:34:15;;;;;;;1.60;1.50;;;25.90;46.00;;;-147.20;100.00;58430.41;5112990;28;20051;-11
2022/08/01 05:36:43;;;;;;;1.48;1.38;;;25.90;46.00;;;-147.20;100.00;58430.41;5112919;28;20426;-11
2022/08/01 05:39:11;;;;;;;1.60;1.50;;;25.90;46.10;;;-147.20;100.00;58430.41;5112851;28;20044;-11
2022/08/01 05:41:38;;;;;;;1.83;1.60;;;25.90;46.00;;;-147.20;100.00;58430.41;5113162;28;20048;-10
2022/08/01 05:44:06;;;;;;;1.50;1.40;;;26.00;46.10;;;-147.20;100.00;58430.41;5112884;28;20486;-11
2022/08/01 05:46:42;;;;;;;1.83;1.73;;;26.00;46.00;;;-147.20;100.00;58430.41;5112390;28;20051;-11
2022/08/01 05:49:09;;;;;;;1.42;1.33;;;26.00;46.00;;;-147.20;100.00;58430.41;5095910;28;20551;-11
2022/08/01 05:51:35;;;;;;;1.58;1.45;;;26.00;46.00;;;-147.20;100.00;58430.41;5112780;28;20043;-10
2022/08/01 05:54:02;;;;;;;1.60;1.50;;;26.00;46.00;;;-147.20;100.00;58430.41;5112344;28;20485;-11
2022/08/01 05:56:28;;;;;;;1.42;1.33;;;26.00;46.00;;;-147.20;100.00;58430.41;5112193;28;20080;-11
2022/08/01 05:58:54;;;;;;;1.77;1.67;;;26.00;45.90;;;-147.20;100.00;58430.41;5112863;28;20056;-11
2022/08/01 06:01:20;;;;;;;1.30;1.30;;;26.00;45.90;;;-147.20;100.00;58430.41;5092246;28;20481;-10
2022/08/01 06:03:46;;;;;;;1.73;1.50;;;26.00;45.90;;;-147.20;100.00;58430.41;5115191;28;20066;-12
2022/08/01 06:06:13;;;;;;;1.33;1.30;;;26.00;46.00;;;-147.20;100.00;58430.41;5096164;28;20052;-11
2022/08/01 06:08:40;;;;;;;1.60;1.50;;;26.00;46.00;;;-147.20;100.00;58430.41;5115858;28;20531;-10
2022/08/01 06:11:06;;;;;;;1.50;1.40;;;26.00;46.00;;;-147.20;100.00;58430.41;5116036;28;20055;-11
2022/08/01 06:13:32;;;;;;;1.52;1.42;;;26.00;46.00;;;-147.20;100.00;58430.41;5097657;28;20400;-11
2022/08/01 06:15:58;;;;;;;1.70;1.60;;;26.10;46.00;;;-147.20;100.00;58430.41;5116353;28;20044;-11
2022/08/01 06:18:24;;;;;;;1.10;1.10;;;26.10;46.50;;;-147.20;100.00;58430.41;5115973;28;20048;-10
2022/08/01 06:20:50;;;;;;;1.40;1.25;;;26.20;45.80;;;-147.20;100.00;58430.41;5115993;28;20074;-11
2022/08/01 06:23:16;;;;;;;1.50;1.40;;;26.30;45.70;;;-147.20;100.00;58430.41;5116039;28;20052;-11
2022/08/01 06:25:43;;;;;;;1.40;1.30;;;26.30;45.80;;;-147.20;100.00;58430.41;5115905;28;20059;-10
2022/08/01 06:28:09;;;;;;;1.40;1.30;;;26.30;45.80;;;-147.20;100.00;58430.41;5097536;28;20446;-11
2022/08/01 06:30:35;;;;;;;1.60;1.50;;;26.30;45.80;;;-147.20;100.00;58430.41;5115546;28;20046;-11
2022/08/01 06:33:01;;;;;;;1.15;1.15;;;26.30;45.80;;;-147.20;100.00;58430.41;5115706;28;20043;-10
2022/08/01 06:35:29;;;;;;;1.60;1.50;;;26.30;45.70;;;-147.20;100.00;58430.41;5115705;28;20069;-10
2022/08/01 06:37:56;;;;;;;1.50;1.40;;;26.30;45.70;;;-147.20;100.00;58430.41;5115617;28;20075;-10
2022/08/01 06:40:21;;;;;;;1.40;1.30;;;26.30;45.90;;;-147.20;100.00;58430.41;5115645;28;20475;-10
2022/08/01 06:42:47;;;;;;;1.45;1.35;;;26.20;46.00;;;-147.20;100.00;58430.41;5115538;28;20161;-11
2022/08/01 06:45:14;;;;;;;1.48;1.40;;;26.20;45.90;;;-147.20;100.00;58430.41;5115613;28;20409;-10
2022/08/01 06:47:42;;;;;;;1.40;1.30;;;26.20;46.10;;;-147.20;100.00;58430.41;5097346;28;20396;-11
2022/08/01 06:50:09;;;;;;;1.10;1.02;;;26.20;46.10;;;-147.20;100.00;58430.41;5115358;28;20142;-10
2022/08/01 06:52:35;;;;;;;1.55;1.40;;;26.20;46.10;;;-147.20;100.00;58430.41;5115435;28;20051;-10
2022/08/01 06:55:02;;;;;;;1.55;1.45;;;26.20;46.10;;;-147.20;100.00;58430.41;5115419;28;20521;-10
2022/08/01 06:57:28;;;;;;;1.80;1.70;;;26.20;46.70;;;-147.20;100.00;58430.41;5115689;28;20048;-11
2022/08/01 06:59:54;;;;;;;1.60;1.30;;;26.20;46.10;;;-147.20;100.00;58430.41;5115960;28;20125;-11
2022/08/01 07:02:20;;;;;;;2.53;1.50;;;26.10;46.10;;;-147.20;100.00;58430.41;5115388;28;20039;-11
2022/08/01 07:04:46;;;;;;;1.30;1.30;;;26.10;46.10;;;-147.20;100.00;58430.41;5115288;28;20075;-11
2022/08/01 07:07:12;;;;;;;1.90;1.52;;;26.10;46.10;;;-147.20;100.00;58430.41;5115079;28;20087;-12
2022/08/01 07:09:40;;;;;;;1.52;1.42;;;26.20;46.20;;;-147.20;100.00;58430.41;5115280;28;20138;-11
2022/08/01 07:12:07;;;;;;;1.67;1.58;;;26.20;46.10;;;-147.20;100.00;58430.41;5115160;28;20058;-11
2022/08/01 07:14:33;;;;;;;1.33;1.23;;;26.20;46.10;;;-147.20;100.00;58430.41;5114488;28;20035;-10
2022/08/01 07:16:58;;;;;;;1.48;1.38;;;26.20;46.10;;;-147.20;100.00;58430.41;5115311;28;20127;-11
2022/08/01 07:19:25;;;;;;;1.65;1.55;;;26.20;46.00;;;-147.20;100.00;58430.41;5114872;28;20051;-11
2022/08/01 07:21:51;;;;;;;1.55;1.45;;;26.20;46.70;;;-147.20;100.00;58430.41;5115112;28;20055;-11
2022/08/01 07:24:17;;;;;;;1.38;1.27;;;26.20;46.20;;;-147.20;100.00;58430.41;5114882;28;20116;-10
2022/08/01 07:26:46;;;;;;;1.40;1.30;;;26.20;46.10;;;-147.20;100.00;58430.41;5096641;28;20538;-10
2022/08/01 07:29:12;;;;;;;1.92;1.58;;;26.20;46.20;;;-147.20;100.00;58430.41;5115159;28;20048;-11
2022/08/01 07:31:39;;;;;;;1.40;1.30;;;26.10;46.20;;;-147.20;100.00;58430.41;5115381;28;20044;-11
2022/08/01 07:34:05;;;;;;;1.65;1.55;;;26.10;46.30;;;-147.20;100.00;58430.41;5114863;28;20061;-11
2022/08/01 07:36:31;;;;;;;1.90;1.50;;;26.10;46.30;;;-147.20;100.00;58430.41;5114638;28;20059;-11
2022/08/01 07:38:57;;;;;;;2.35;1.50;;;26.10;46.50;;;-147.20;100.00;58430.41;5096120;28;20056;-22
2022/08/01 07:41:23;;;;;;;1.52;1.42;;;26.10;46.50;;;-147.20;100.00;58430.41;5114427;28;20055;-11
2022/08/01 07:43:48;;;;;;;1.30;1.20;;;26.10;46.50;;;-147.20;100.00;58430.41;5095459;28;20079;-11
2022/08/01 07:46:15;;;;;;;2.17;1.50;;;26.10;46.40;;;-147.20;100.00;58430.41;5114476;28;20386;-11
2022/08/01 07:48:41;;;;;;;1.73;1.40;;;26.10;46.90;;;-147.20;100.00;58430.41;5114545;28;20062;-10
2022/08/01 07:51:08;;;;;;;2.67;1.77;;;26.10;47.10;;;-147.20;100.00;58430.41;5114486;28;20050;-11
2022/08/01 07:53:34;;;;;;;1.40;1.27;;;26.10;47.20;;;-147.20;100.00;58430.41;5114437;28;20061;-11
2022/08/01 07:56:02;;;;;;;1.60;1.50;;;26.20;47.00;;;-147.20;100.00;58430.41;5115001;28;20040;-11
2022/08/01 07:58:29;;;;;;;3.10;1.35;;;26.20;46.90;;;-147.20;100.00;58430.41;5114379;28;20111;-10
2022/08/01 08:00:54;;;;;;;2.63;1.25;;;26.30;46.80;;;-147.20;100.00;58430.41;5114322;28;20094;-11
2022/08/01 08:03:20;;;;;;;1.50;1.40;;;26.30;46.70;;;-147.20;100.00;58430.41;5114508;28;20497;-11
2022/08/01 08:05:46;;;;;;;1.63;1.17;;;26.30;46.70;;;-147.20;100.00;58430.41;5114352;28;20043;-12
2022/08/01 08:08:13;;;;;;;1.42;1.33;;;26.30;46.60;;;-147.20;100.00;58430.41;5114301;28;20155;-11
2022/08/01 08:10:40;;;;;;;3.50;1.50;;;26.30;47.00;;;-147.20;100.00;58430.41;5114249;28;20077;-11
2022/08/01 08:13:05;;;;;;;1.70;1.42;;;26.30;47.20;;;-147.20;100.00;58430.41;5113982;28;20043;-11
2022/08/01 08:15:31;;;;;;;2.13;1.42;;;26.30;47.00;;;-147.20;100.00;58430.41;5114136;28;20073;-11
2022/08/01 08:17:57;;;;;;;2.58;1.42;;;26.30;47.10;;;-147.20;100.00;58430.41;5114513;28;20079;-11
2022/08/01 08:20:26;;;;;;;1.50;1.40;;;26.30;47.20;;;-147.20;100.00;58430.41;5114373;28;20126;-11
2022/08/01 08:22:53;;;;;;;2.63;1.50;;;26.30;47.20;;;-147.20;100.00;58430.41;5113897;28;20054;-11
2022/08/01 08:25:20;;;;;;;1.70;1.60;;;26.30;47.40;;;-147.20;100.00;58430.41;5113389;28;20040;-10
2022/08/01 08:27:49;;;;;;;2.33;1.40;;;26.30;47.50;;;-147.20;100.00;58430.41;5113797;28;20057;-10
2022/08/01 08:30:15;;;;;;;1.60;1.20;;;26.30;47.50;;;-147.20;100.00;58430.41;5112444;28;20051;-11
2022/08/01 08:32:41;;;;;;;1.50;1.40;;;26.30;47.30;;;-147.20;100.00;58430.41;5111305;28;20046;-12
2022/08/01 08:35:08;;;;;;;2.00;1.55;;;26.40;47.60;;;-147.20;100.00;58430.41;5111431;28;20051;-11
2022/08/01 08:37:35;;;;;;;5.50;1.52;;;26.40;47.40;;;-147.20;100.00;58430.41;5111518;28;20044;-12
2022/08/01 08:40:03;;;;;;;3.25;1.60;;;26.50;47.20;;;-147.20;100.00;58430.41;5094250;28;20046;-11
2022/08/01 08:42:28;;;;;;;2.67;1.48;;;26.60;47.00;;;-147.20;100.00;58430.41;5112989;28;20074;-12
2022/08/01 08:44:55;;;;;;;8.10;1.77;;;26.60;46.90;;;-147.20;100.00;58430.41;5112883;28;20411;-11
2022/08/01 08:47:22;;;;;;;1.92;1.50;;;26.60;46.90;;;-147.20;100.00;58430.41;5113691;28;20408;-10
2022/08/01 08:49:52;;;;;;;2.00;1.80;;;26.60;46.90;;;-147.20;100.00;58430.41;5113534;28;20134;-10
2022/08/01 08:52:22;;;;;;;2.23;1.50;;;26.60;47.00;;;-147.20;100.00;58430.41;5095362;28;20599;-10
2022/08/01 08:54:50;;;;;;;2.75;1.95;;;26.50;47.00;;;-147.20;100.00;58430.41;5113522;28;20758;-10
2022/08/01 08:57:18;;;;;;;2.67;1.80;;;26.60;47.10;;;-147.20;100.00;58430.41;5095266;28;20074;-10
2022/08/01 08:59:44;;;;;;;1.95;1.50;;;26.60;47.10;;;-147.20;100.00;58430.41;5113728;28;20058;-11
2022/08/01 09:02:11;;;;;;;3.30;1.40;;;26.60;47.20;;;-147.20;100.00;58430.41;5095119;28;20039;-11
2022/08/01 09:04:38;;;;;;;2.92;1.80;;;26.60;47.20;;;-147.20;100.00;58430.41;5113459;28;20040;-11
2022/08/01 09:07:06;;;;;;;2.80;1.70;;;26.60;47.30;;;-147.20;100.00;58430.41;5113672;28;20430;-10
2022/08/01 09:09:32;;;;;;;4.90;1.63;;;26.60;47.60;;;-147.20;100.00;58430.41;5112802;28;20153;-11
2022/08/01 09:11:58;;;;;;;4.10;1.73;;;26.60;47.30;;;-147.20;100.00;58430.41;5113077;28;20485;-10
2022/08/01 09:14:29;;;;;;;3.05;1.90;;;26.60;47.80;;;-147.20;100.00;58430.41;5095019;28;20048;-11
2022/08/01 09:17:11;;;;;;;3.28;1.83;;;26.60;47.50;;;-147.20;100.00;58430.41;5095544;28;20405;-10
2022/08/01 09:19:41;;;;;;;2.20;1.63;;;26.60;47.50;;;-147.20;100.00;58430.41;5092967;28;20048;-10
2022/08/01 09:22:11;;;;;;;2.03;1.60;;;26.60;47.60;;;-147.20;100.00;58430.41;5113213;28;20083;-10
2022/08/01 09:24:39;;;;;;;2.75;1.73;;;26.60;47.70;;;-147.20;100.00;58430.41;5113006;28;20051;-10
2022/08/01 09:27:20;;;;;;;4.25;1.90;;;26.50;47.70;;;-147.20;100.00;58430.41;5112891;28;20088;-10
2022/08/01 09:29:46;;;;;;;5.43;1.65;;;26.50;47.70;;;-147.20;100.00;58430.41;5111392;28;20075;-11
2022/08/01 09:32:12;;;;;;;2.53;1.85;;;26.50;47.80;;;-147.20;100.00;58430.41;5112732;28;20081;-11
2022/08/01 09:34:38;;;;;;;4.97;1.90;;;26.50;47.70;;;-147.20;100.00;58430.41;5094568;28;20077;-11
2022/08/01 09:37:05;;;;;;;2.40;1.70;;;26.50;47.60;;;-147.20;100.00;58430.41;5093695;28;20056;-11
2022/08/01 09:39:39;;;;;;;2.15;1.45;;;26.50;47.50;;;-147.20;100.00;58430.41;5112771;28;20052;-10
2022/08/01 09:42:25;;;;;;;2.63;1.30;;;26.50;47.30;;;-147.20;100.00;58430.41;5094127;28;20047;-10
2022/08/01 09:44:52;;;;;;;2.67;1.65;;;26.50;47.20;;;-147.20;100.00;58430.41;5113084;28;20125;-10
2022/08/01 09:47:20;;;;;;;3.97;1.75;;;26.50;47.20;;;-147.20;100.00;58430.41;5094297;28;20058;-11
2022/08/01 09:49:55;;;;;;;2.75;1.60;;;26.50;47.10;;;-147.20;100.00;58430.41;5113019;28;20044;-10
2022/08/01 09:52:24;;;;;;;1.67;1.50;;;26.50;47.10;;;-147.20;100.00;58430.41;5112784;28;20047;-10
2022/08/01 09:55:07;;;;;;;4.40;1.73;;;26.50;47.00;;;-147.20;100.00;58430.41;5112009;28;20043;-11
2022/08/01 09:57:33;;;;;;;2.38;1.60;;;26.50;47.20;;;-147.20;100.00;58430.41;5111615;28;20039;-12
2022/08/01 10:00:01;;;;;;;2.10;1.50;;;26.50;47.00;;;-147.20;100.00;58430.41;5112079;28;20036;-10
2022/08/01 10:02:35;;;;;;;1.73;1.50;;;26.50;47.00;;;-147.20;100.00;58430.41;5112529;28;20407;-10
2022/08/01 10:05:07;;;;;;;2.90;1.63;;;26.50;46.90;;;-147.20;100.00;58430.41;5112647;28;20548;-10
2022/08/01 10:07:34;;;;;;;4.07;1.73;;;26.50;46.90;;;-147.20;100.00;58430.41;5112179;28;20048;-10
2022/08/01 10:10:12;;;;;;;2.55;1.52;;;26.50;46.90;;;-147.20;100.00;58430.41;5112160;28;20102;-10